Time,TemperatureF,DewpointF,PressureIn,WindDirection,WindDirectionDegrees,WindSpeedMPH,WindSpeedGustMPH,Humidity,HourlyPrecipIn,Conditions,Clouds,dailyrainin,SolarRadiationWatts/m^2,SoftwareType,DateUTC
2013-01-26 00:11:00,-1.0,-6.0,-100.00,NW,304,0.0,0.0,77,0.00,,,-99.99,0.000000,,2013-01-26 09:11:00,
2013-01-26 00:22:00,-1.0,-6.0,-100.00,NW,304,0.0,0.0,77,0.00,,,-99.99,0.000000,,2013-01-26 09:22:00,
2013-01-26 00:31:00,-1.0,-6.0,-100.00,NW,304,0.0,0.0,77,0.00,,,-99.99,0.000000,,2013-01-26 09:31:00,
2013-01-26 00:42:00,-1.0,-6.0,-100.00,NW,304,0.0,0.0,77,0.00,,,-99.99,0.000000,,2013-01-26 09:42:00,
2013-01-26 00:51:00,-1.0,-6.0,-100.00,NW,304,0.0,0.0,77,0.00,,,-99.99,0.000000,,2013-01-26 09:51:00,
2013-01-26 01:21:00,0.0,-6.0,-100.00,NNW,341,0.0,0.0,75,0.00,,,0.00,0.000000,,2013-01-26 10:21:00,
2013-01-26 01:31:00,0.0,-6.0,-100.00,NNW,341,0.0,0.0,75,0.00,,,0.00,0.000000,,2013-01-26 10:31:00,
2013-01-26 01:42:00,0.0,-6.0,-100.00,NNW,341,0.0,0.0,75,0.00,,,0.00,0.000000,,2013-01-26 10:42:00,
2013-01-26 01:52:00,0.0,-6.0,-100.00,NNW,341,0.0,0.0,75,0.00,,,0.00,0.000000,,2013-01-26 10:52:00,
2013-01-26 02:12:00,-3.0,-8.0,-100.00,WNW,301,0.0,0.0,77,0.00,,,0.00,0.000000,,2013-01-26 11:12:00,
2013-01-26 02:22:00,-3.0,-8.0,-100.00,WNW,301,0.0,0.0,77,0.00,,,0.00,0.000000,,2013-01-26 11:22:00,
2013-01-26 02:32:00,-3.0,-8.0,-100.00,WNW,301,0.0,0.0,77,0.00,,,0.00,0.000000,,2013-01-26 11:32:00,
2013-01-26 02:42:00,-3.0,-8.0,-100.00,WNW,301,0.0,0.0,77,0.00,,,0.00,0.000000,,2013-01-26 11:42:00,
2013-01-26 02:52:00,-3.0,-8.0,-100.00,WNW,301,0.0,0.0,77,0.00,,,0.00,0.000000,,2013-01-26 11:52:00,
2013-01-26 03:12:00,-5.0,-10.0,-100.00,West,260,0.0,1.0,80,0.00,,,0.00,0.000000,,2013-01-26 12:12:00,
2013-01-26 03:22:00,-5.0,-10.0,-100.00,West,260,0.0,1.0,80,0.00,,,0.00,0.000000,,2013-01-26 12:22:00,
2013-01-26 03:33:00,-5.0,-10.0,-100.00,West,260,0.0,1.0,80,0.00,,,0.00,0.000000,,2013-01-26 12:33:00,
2013-01-26 03:42:00,-5.0,-10.0,-100.00,West,260,0.0,1.0,80,0.00,,,0.00,0.000000,,2013-01-26 12:42:00,
2013-01-26 03:52:00,-5.0,-10.0,-100.00,West,260,0.0,1.0,80,0.00,,,0.00,0.000000,,2013-01-26 12:52:00,
2013-01-26 04:12:00,-3.0,-9.0,-100.00,NW,324,0.0,1.0,76,0.00,,,0.00,0.000000,,2013-01-26 13:12:00,
2013-01-26 04:22:00,-3.0,-9.0,-100.00,NW,324,0.0,1.0,76,0.00,,,0.00,0.000000,,2013-01-26 13:22:00,
2013-01-26 04:32:00,-3.0,-9.0,-100.00,NW,324,0.0,1.0,76,0.00,,,0.00,0.000000,,2013-01-26 13:32:00,
2013-01-26 04:42:00,-3.0,-9.0,-100.00,NW,324,0.0,1.0,76,0.00,,,0.00,0.000000,,2013-01-26 13:42:00,
2013-01-26 04:52:00,-3.0,-9.0,-100.00,NW,324,0.0,1.0,76,0.00,,,0.00,0.000000,,2013-01-26 13:52:00,
2013-01-26 05:21:00,-5.0,-10.0,-100.00,NNW,337,0.0,1.0,80,0.00,,,0.00,0.000000,,2013-01-26 14:21:00,
2013-01-26 05:32:00,-5.0,-10.0,-100.00,NNW,337,0.0,1.0,80,0.00,,,0.00,0.000000,,2013-01-26 14:32:00,
2013-01-26 05:42:00,-5.0,-10.0,-100.00,NNW,337,0.0,1.0,80,0.00,,,0.00,0.000000,,2013-01-26 14:42:00,
2013-01-26 05:52:00,-5.0,-10.0,-100.00,NNW,337,0.0,1.0,80,0.00,,,0.00,0.000000,,2013-01-26 14:52:00,
2013-01-26 06:22:00,-7.0,-11.0,-100.00,WNW,296,1.0,3.0,83,0.00,,,0.00,0.000000,,2013-01-26 15:22:00,
2013-01-26 06:32:00,-7.0,-11.0,-100.00,WNW,296,1.0,3.0,83,0.00,,,0.00,0.000000,,2013-01-26 15:32:00,
2013-01-26 06:43:00,-7.0,-11.0,-100.00,WNW,296,1.0,3.0,83,0.00,,,0.00,0.000000,,2013-01-26 15:43:00,
2013-01-26 06:52:00,-7.0,-11.0,-100.00,WNW,296,1.0,3.0,83,0.00,,,0.00,0.000000,,2013-01-26 15:52:00,
2013-01-26 07:12:00,-7.0,-11.0,-100.00,NW,307,0.0,1.0,82,0.00,,,0.00,0.000000,,2013-01-26 16:12:00,
2013-01-26 07:21:00,-7.0,-11.0,-100.00,NW,307,0.0,1.0,82,0.00,,,0.00,0.000000,,2013-01-26 16:21:00,
2013-01-26 07:32:00,-7.0,-11.0,-100.00,NW,307,0.0,1.0,82,0.00,,,0.00,0.000000,,2013-01-26 16:32:00,
2013-01-26 07:42:00,-7.0,-11.0,-100.00,NW,307,0.0,1.0,82,0.00,,,0.00,0.000000,,2013-01-26 16:42:00,
2013-01-26 07:52:00,-7.0,-11.0,-100.00,NW,307,0.0,1.0,82,0.00,,,0.00,0.000000,,2013-01-26 16:52:00,
2013-01-26 08:22:00,-7.0,-11.0,-100.00,NNW,345,0.0,1.0,83,0.00,,,0.00,0.000000,,2013-01-26 17:22:00,
2013-01-26 08:32:00,-7.0,-11.0,-100.00,NNW,345,0.0,1.0,83,0.00,,,0.00,0.000000,,2013-01-26 17:32:00,
2013-01-26 08:42:00,-7.0,-11.0,-100.00,NNW,345,0.0,1.0,83,0.00,,,0.00,0.000000,,2013-01-26 17:42:00,
2013-01-26 08:52:00,-7.0,-11.0,-100.00,NNW,345,0.0,1.0,83,0.00,,,0.00,0.000000,,2013-01-26 17:52:00,
2013-01-26 09:22:00,-9.0,-13.0,-100.00,SSW,211,0.0,3.0,80,0.00,,,0.00,0.000000,,2013-01-26 18:22:00,
2013-01-26 09:32:00,-9.0,-13.0,-100.00,SSW,211,0.0,3.0,80,0.00,,,0.00,0.000000,,2013-01-26 18:32:00,
2013-01-26 09:42:00,-9.0,-13.0,-100.00,SSW,211,0.0,3.0,80,0.00,,,0.00,0.000000,,2013-01-26 18:42:00,
2013-01-26 09:52:00,-9.0,-13.0,-100.00,SSW,211,0.0,3.0,80,0.00,,,0.00,0.000000,,2013-01-26 18:52:00,
2013-01-26 10:12:00,-8.0,-12.0,-100.00,NNW,335,0.0,0.0,81,0.00,,,-99.99,4.000000,,2013-01-26 19:12:00,
2013-01-26 10:22:00,-8.0,-12.0,-100.00,NNW,335,0.0,0.0,81,0.00,,,-99.99,4.000000,,2013-01-26 19:22:00,
2013-01-26 10:32:00,-8.0,-12.0,-100.00,NNW,335,0.0,0.0,81,0.00,,,-99.99,4.000000,,2013-01-26 19:32:00,
2013-01-26 10:42:00,-8.0,-12.0,-100.00,NNW,335,0.0,0.0,81,0.00,,,-99.99,4.000000,,2013-01-26 19:42:00,
2013-01-26 10:52:00,-8.0,-12.0,-100.00,NNW,335,0.0,0.0,81,0.00,,,-99.99,4.000000,,2013-01-26 19:52:00,
2013-01-26 11:21:00,-5.0,-10.0,-100.00,North,355,0.0,2.0,77,0.00,,,0.00,37.000000,,2013-01-26 20:21:00,
2013-01-26 11:32:00,-5.0,-10.0,-100.00,North,355,0.0,2.0,77,0.00,,,0.00,37.000000,,2013-01-26 20:32:00,
2013-01-26 11:42:00,-5.0,-10.0,-100.00,North,355,0.0,2.0,77,0.00,,,0.00,37.000000,,2013-01-26 20:42:00,
2013-01-26 11:52:00,-5.0,-10.0,-100.00,North,355,0.0,2.0,77,0.00,,,0.00,37.000000,,2013-01-26 20:52:00,
2013-01-26 12:12:00,3.0,-6.0,-100.00,WSW,240,0.0,2.0,64,0.00,,,0.00,142.000000,,2013-01-26 21:12:00,
2013-01-26 12:22:00,3.0,-6.0,-100.00,WSW,240,0.0,2.0,64,0.00,,,0.00,142.000000,,2013-01-26 21:22:00,
2013-01-26 12:42:00,3.0,-6.0,-100.00,WSW,240,0.0,2.0,64,0.00,,,0.00,142.000000,,2013-01-26 21:42:00,
2013-01-26 12:51:00,3.0,-6.0,-100.00,WSW,240,0.0,2.0,64,0.00,,,0.00,142.000000,,2013-01-26 21:51:00,
2013-01-26 13:11:00,8.0,-8.0,-100.00,NNE,22,0.0,3.0,48,0.00,,,0.00,101.000000,,2013-01-26 22:11:00,
2013-01-26 13:21:00,8.0,-8.0,-100.00,NNE,22,0.0,3.0,48,0.00,,,0.00,101.000000,,2013-01-26 22:21:00,
2013-01-26 13:31:00,8.0,-8.0,-100.00,NNE,22,0.0,3.0,48,0.00,,,0.00,101.000000,,2013-01-26 22:31:00,
2013-01-26 13:41:00,8.0,-8.0,-100.00,NNE,22,0.0,3.0,48,0.00,,,0.00,101.000000,,2013-01-26 22:41:00,
2013-01-26 13:51:00,8.0,-8.0,-100.00,NNE,22,0.0,3.0,48,0.00,,,0.00,101.000000,,2013-01-26 22:51:00,
2013-01-26 14:11:00,11.0,-12.0,-100.00,NNE,20,1.0,4.0,34,0.00,,,0.00,216.000000,,2013-01-26 23:11:00,
2013-01-26 14:21:00,11.0,-12.0,-100.00,NNE,20,1.0,4.0,34,0.00,,,0.00,216.000000,,2013-01-26 23:21:00,
2013-01-26 14:32:00,11.0,-12.0,-100.00,NNE,20,1.0,4.0,34,0.00,,,0.00,216.000000,,2013-01-26 23:32:00,
2013-01-26 14:41:00,11.0,-12.0,-100.00,NNE,20,1.0,4.0,34,0.00,,,0.00,216.000000,,2013-01-26 23:41:00,
2013-01-26 14:51:00,11.0,-12.0,-100.00,NNE,20,1.0,4.0,34,0.00,,,0.00,216.000000,,2013-01-26 23:51:00,
2013-01-26 15:21:00,11.0,-11.0,-100.00,North,358,1.0,4.0,35,0.00,,,0.00,199.000000,,2013-01-27 00:21:00,
2013-01-26 15:32:00,11.0,-11.0,-100.00,North,358,1.0,4.0,35,0.00,,,0.00,199.000000,,2013-01-27 00:32:00,
2013-01-26 15:41:00,11.0,-11.0,-100.00,North,358,1.0,4.0,35,0.00,,,0.00,199.000000,,2013-01-27 00:41:00,
2013-01-26 15:51:00,11.0,-11.0,-100.00,North,358,1.0,4.0,35,0.00,,,0.00,199.000000,,2013-01-27 00:51:00,
2013-01-26 16:22:00,8.0,-13.0,-100.00,NNE,28,1.0,6.0,37,0.00,,,0.00,80.000000,,2013-01-27 01:22:00,
2013-01-26 16:32:00,8.0,-13.0,-100.00,NNE,28,1.0,6.0,37,0.00,,,0.00,80.000000,,2013-01-27 01:32:00,
2013-01-26 16:41:00,8.0,-13.0,-100.00,NNE,28,1.0,6.0,37,0.00,,,0.00,80.000000,,2013-01-27 01:41:00,
2013-01-26 16:51:00,8.0,-13.0,-100.00,NNE,28,1.0,6.0,37,0.00,,,0.00,80.000000,,2013-01-27 01:51:00,
2013-01-26 17:11:00,3.0,-13.0,-100.00,North,8,0.0,4.0,47,0.00,,,0.00,27.000000,,2013-01-27 02:11:00,
2013-01-26 17:21:00,3.0,-13.0,-100.00,North,8,0.0,4.0,47,0.00,,,0.00,27.000000,,2013-01-27 02:21:00,
2013-01-26 17:31:00,3.0,-13.0,-100.00,North,8,0.0,4.0,47,0.00,,,0.00,27.000000,,2013-01-27 02:31:00,
2013-01-26 17:41:00,3.0,-13.0,-100.00,North,8,0.0,4.0,47,0.00,,,0.00,27.000000,,2013-01-27 02:41:00,
2013-01-26 17:52:00,3.0,-13.0,-100.00,North,8,0.0,4.0,47,0.00,,,0.00,27.000000,,2013-01-27 02:52:00,
2013-01-26 18:11:00,-1.0,-12.0,-100.00,NW,308,0.0,1.0,59,0.00,,,0.00,2.000000,,2013-01-27 03:11:00,
2013-01-26 18:21:00,-1.0,-12.0,-100.00,NW,308,0.0,1.0,59,0.00,,,0.00,2.000000,,2013-01-27 03:21:00,
2013-01-26 18:31:00,-1.0,-12.0,-100.00,NW,308,0.0,1.0,59,0.00,,,0.00,2.000000,,2013-01-27 03:31:00,
2013-01-26 18:41:00,-1.0,-12.0,-100.00,NW,308,0.0,1.0,59,0.00,,,0.00,2.000000,,2013-01-27 03:41:00,
2013-01-26 18:51:00,-1.0,-12.0,-100.00,NW,308,0.0,1.0,59,0.00,,,0.00,2.000000,,2013-01-27 03:51:00,
2013-01-26 19:21:00,-1.0,-10.0,-100.00,NNW,332,0.0,1.0,65,0.00,,,0.00,0.000000,,2013-01-27 04:21:00,
2013-01-26 19:31:00,-1.0,-10.0,-100.00,NNW,332,0.0,1.0,65,0.00,,,0.00,0.000000,,2013-01-27 04:31:00,
2013-01-26 19:41:00,-1.0,-10.0,-100.00,NNW,332,0.0,1.0,65,0.00,,,0.00,0.000000,,2013-01-27 04:41:00,
2013-01-26 19:51:00,-1.0,-10.0,-100.00,NNW,332,0.0,1.0,65,0.00,,,0.00,0.000000,,2013-01-27 04:51:00,
2013-01-26 20:22:00,-4.0,-13.0,-100.00,NW,314,0.0,0.0,64,0.00,,,0.00,0.000000,,2013-01-27 05:22:00,
2013-01-26 20:32:00,-4.0,-13.0,-100.00,NW,314,0.0,0.0,64,0.00,,,0.00,0.000000,,2013-01-27 05:32:00,
2013-01-26 20:41:00,-4.0,-13.0,-100.00,NW,314,0.0,0.0,64,0.00,,,0.00,0.000000,,2013-01-27 05:41:00,
2013-01-26 20:51:00,-4.0,-13.0,-100.00,NW,314,0.0,0.0,64,0.00,,,0.00,0.000000,,2013-01-27 05:51:00,
2013-01-26 21:11:00,-7.0,-13.0,-100.00,WNW,292,0.0,1.0,75,0.00,,,0.00,0.000000,,2013-01-27 06:11:00,
2013-01-26 21:21:00,-7.0,-13.0,-100.00,WNW,292,0.0,1.0,75,0.00,,,0.00,0.000000,,2013-01-27 06:21:00,
2013-01-26 21:31:00,-7.0,-13.0,-100.00,WNW,292,0.0,1.0,75,0.00,,,0.00,0.000000,,2013-01-27 06:31:00,
2013-01-26 21:41:00,-7.0,-13.0,-100.00,WNW,292,0.0,1.0,75,0.00,,,0.00,0.000000,,2013-01-27 06:41:00,
2013-01-26 21:51:00,-7.0,-13.0,-100.00,WNW,292,0.0,1.0,75,0.00,,,0.00,0.000000,,2013-01-27 06:51:00,
2013-01-26 22:13:00,-8.0,-15.0,-100.00,NNW,332,0.0,1.0,72,0.00,,,0.00,0.000000,,2013-01-27 07:13:00,
2013-01-26 22:21:00,-8.0,-15.0,-100.00,NNW,332,0.0,1.0,72,0.00,,,0.00,0.000000,,2013-01-27 07:21:00,
2013-01-26 22:31:00,-8.0,-15.0,-100.00,NNW,332,0.0,1.0,72,0.00,,,0.00,0.000000,,2013-01-27 07:31:00,
2013-01-26 22:41:00,-8.0,-15.0,-100.00,NNW,332,0.0,1.0,72,0.00,,,0.00,0.000000,,2013-01-27 07:41:00,
2013-01-26 22:51:00,-8.0,-15.0,-100.00,NNW,332,0.0,1.0,72,0.00,,,0.00,0.000000,,2013-01-27 07:51:00,
2013-01-26 23:11:00,-10.0,-15.0,-100.00,NW,324,0.0,0.0,76,0.00,,,0.00,0.000000,,2013-01-27 08:11:00,
2013-01-26 23:22:00,-10.0,-15.0,-100.00,NW,324,0.0,0.0,76,0.00,,,0.00,0.000000,,2013-01-27 08:22:00,
2013-01-26 23:31:00,-10.0,-15.0,-100.00,NW,324,0.0,0.0,76,0.00,,,0.00,0.000000,,2013-01-27 08:31:00,
2013-01-26 23:41:00,-10.0,-15.0,-100.00,NW,324,0.0,0.0,76,0.00,,,0.00,0.000000,,2013-01-27 08:41:00,
2013-01-26 23:52:00,-10.0,-15.0,-100.00,NW,324,0.0,0.0,76,0.00,,,0.00,0.000000,,2013-01-27 08:52:00,